sensor_id;sensor_type;location;lat;lon;timestamp;pressure;altitude;pressure_sealevel;temperature;humidity
12358;BME280;6243;51.244;6.774;2023-05-25T00:00:20;151195.16;;;14.80;100.00
12358;BME280;6243;51.244;6.774;2023-05-25T00:02:45;151108.44;;;14.46;100.00
12358;BME280;6243;51.244;6.774;2023-05-25T00:05:11;151109.72;;;14.46;100.00
12358;BME280;6243;51.244;6.774;2023-05-25T00:07:37;151112.25;;;14.47;100.00
12358;BME280;6243;51.244;6.774;2023-05-25T00:10:05;151187.50;;;14.77;100.00
12358;BME280;6243;51.244;6.774;2023-05-25T00:12:31;151193.88;;;14.79;100.00
12358;BME280;6243;51.244;6.774;2023-05-25T00:14:57;151156.88;;;14.65;100.00
12358;BME280;6243;51.244;6.774;2023-05-25T00:17:23;151084.22;;;14.36;100.00
12358;BME280;6243;51.244;6.774;2023-05-25T00:19:48;151095.69;;;14.41;100.00
12358;BME280;6243;51.244;6.774;2023-05-25T00:22:14;151084.22;;;14.36;100.00
12358;BME280;6243;51.244;6.774;2023-05-25T00:24:39;151021.69;;;14.11;100.00
12358;BME280;6243;51.244;6.774;2023-05-25T00:27:06;151003.84;;;14.04;100.00
12358;BME280;6243;51.244;6.774;2023-05-25T00:29:32;151033.19;;;14.16;100.00
12358;BME280;6243;51.244;6.774;2023-05-25T00:31:57;151048.44;;;14.22;100.00
12358;BME280;6243;51.244;6.774;2023-05-25T00:34:23;151021.69;;;14.11;100.00
12358;BME280;6243;51.244;6.774;2023-05-25T00:36:49;151029.38;;;14.14;100.00
12358;BME280;6243;51.244;6.774;2023-05-25T00:39:14;150940.13;;;13.79;100.00
12358;BME280;6243;51.244;6.774;2023-05-25T00:41:41;151005.13;;;14.05;100.00
12358;BME280;6243;51.244;6.774;2023-05-25T00:44:09;151026.78;;;14.13;100.00
12358;BME280;6243;51.244;6.774;2023-05-25T00:46:35;151012.75;;;14.08;100.00
12358;BME280;6243;51.244;6.774;2023-05-25T00:49:01;151007.66;;;14.06;100.00
12358;BME280;6243;51.244;6.774;2023-05-25T00:51:28;151011.53;;;14.07;100.00
12358;BME280;6243;51.244;6.774;2023-05-25T00:53:54;150913.38;;;13.69;100.00
12358;BME280;6243;51.244;6.774;2023-05-25T00:56:23;150943.94;;;13.81;100.00
12358;BME280;6243;51.244;6.774;2023-05-25T00:58:53;150954.16;;;13.85;100.00
12358;BME280;6243;51.244;6.774;2023-05-25T01:01:21;150946.50;;;13.82;100.00
12358;BME280;6243;51.244;6.774;2023-05-25T01:03:49;150877.72;;;13.55;100.00
12358;BME280;6243;51.244;6.774;2023-05-25T01:06:16;150870.03;;;13.51;100.00
12358;BME280;6243;51.244;6.774;2023-05-25T01:08:46;150880.22;;;13.56;100.00
12358;BME280;6243;51.244;6.774;2023-05-25T01:11:13;150898.06;;;13.63;100.00
12358;BME280;6243;51.244;6.774;2023-05-25T01:13:39;150881.50;;;13.56;100.00
12358;BME280;6243;51.244;6.774;2023-05-25T01:16:05;150932.47;;;13.76;100.00
12358;BME280;6243;51.244;6.774;2023-05-25T01:18:33;150946.50;;;13.82;100.00
12358;BME280;6243;51.244;6.774;2023-05-25T01:21:06;150786.00;;;13.18;100.00
12358;BME280;6243;51.244;6.774;2023-05-25T01:23:35;150745.19;;;13.02;100.00
12358;BME280;6243;51.244;6.774;2023-05-25T01:26:03;150842.03;;;13.40;100.00
12358;BME280;6243;51.244;6.774;2023-05-25T01:28:35;150894.25;;;13.61;100.00
12358;BME280;6243;51.244;6.774;2023-05-25T01:31:02;150901.91;;;13.64;100.00
12358;BME280;6243;51.244;6.774;2023-05-25T01:33:28;150896.78;;;13.62;100.00
12358;BME280;6243;51.244;6.774;2023-05-25T01:35:55;150910.81;;;13.68;100.00
12358;BME280;6243;51.244;6.774;2023-05-25T01:38:23;150875.13;;;13.53;100.00
12358;BME280;6243;51.244;6.774;2023-05-25T01:40:49;150788.50;;;13.19;100.00
12358;BME280;6243;51.244;6.774;2023-05-25T01:43:15;150819.09;;;13.31;100.00
12358;BME280;6243;51.244;6.774;2023-05-25T01:45:40;150798.69;;;13.23;100.00
12358;BME280;6243;51.244;6.774;2023-05-25T01:48:11;150708.22;;;12.88;100.00
12358;BME280;6243;51.244;6.774;2023-05-25T01:50:42;150760.50;;;13.08;100.00
12358;BME280;6243;51.244;6.774;2023-05-25T01:53:15;150747.69;;;13.03;100.00
12358;BME280;6243;51.244;6.774;2023-05-25T01:55:46;150779.63;;;13.16;100.00
12358;BME280;6243;51.244;6.774;2023-05-25T01:58:13;150729.88;;;12.96;100.00
12358;BME280;6243;51.244;6.774;2023-05-25T02:00:40;150673.84;;;12.74;100.00
12358;BME280;6243;51.244;6.774;2023-05-25T02:03:06;150741.31;;;13.01;100.00
12358;BME280;6243;51.244;6.774;2023-05-25T02:05:31;150756.69;;;13.07;100.00
12358;BME280;6243;51.244;6.774;2023-05-25T02:07:57;150746.47;;;13.03;100.00
12358;BME280;6243;51.244;6.774;2023-05-25T02:10:22;150752.84;;;13.05;100.00
12358;BME280;6243;51.244;6.774;2023-05-25T02:12:49;150766.88;;;13.11;100.00
12358;BME280;6243;51.244;6.774;2023-05-25T02:15:15;150792.38;;;13.21;100.00
12358;BME280;6243;51.244;6.774;2023-05-25T02:17:40;150811.44;;;13.28;100.00
12358;BME280;6243;51.244;6.774;2023-05-25T02:20:07;150794.88;;;13.22;100.00
12358;BME280;6243;51.244;6.774;2023-05-25T02:22:33;150817.81;;;13.31;100.00
12358;BME280;6243;51.244;6.774;2023-05-25T02:24:58;150826.75;;;13.34;100.00
12358;BME280;6243;51.244;6.774;2023-05-25T02:27:24;150825.47;;;13.34;100.00
12358;BME280;6243;51.244;6.774;2023-05-25T02:29:51;150840.75;;;13.40;100.00
12358;BME280;6243;51.244;6.774;2023-05-25T02:32:16;150852.19;;;13.44;100.00
12358;BME280;6243;51.244;6.774;2023-05-25T02:34:42;150812.72;;;13.29;100.00
12358;BME280;6243;51.244;6.774;2023-05-25T02:37:07;150729.88;;;12.96;100.00
12358;BME280;6243;51.244;6.774;2023-05-25T02:39:33;150657.31;;;12.67;100.00
12358;BME280;6243;51.244;6.774;2023-05-25T02:41:58;150703.16;;;12.86;100.00
12358;BME280;6243;51.244;6.774;2023-05-25T02:44:23;150659.88;;;12.68;100.00
12358;BME280;6243;51.244;6.774;2023-05-25T02:46:50;150731.16;;;12.97;100.00
12358;BME280;6243;51.244;6.774;2023-05-25T02:49:16;150695.50;;;12.82;100.00
12358;BME280;6243;51.244;6.774;2023-05-25T02:51:41;150747.69;;;13.03;100.00
12358;BME280;6243;51.244;6.774;2023-05-25T02:54:07;150747.69;;;13.03;100.00
12358;BME280;6243;51.244;6.774;2023-05-25T02:56:32;150769.44;;;13.12;100.00
12358;BME280;6243;51.244;6.774;2023-05-25T02:58:58;150789.78;;;13.20;100.00
12358;BME280;6243;51.244;6.774;2023-05-25T03:01:23;150777.03;;;13.15;100.00
12358;BME280;6243;51.244;6.774;2023-05-25T03:03:50;150754.13;;;13.06;100.00
12358;BME280;6243;51.244;6.774;2023-05-25T03:06:16;150750.28;;;13.04;100.00
12358;BME280;6243;51.244;6.774;2023-05-25T03:08:41;150732.44;;;12.97;100.00
12358;BME280;6243;51.244;6.774;2023-05-25T03:11:07;150732.44;;;12.97;100.00
12358;BME280;6243;51.244;6.774;2023-05-25T03:13:32;150783.41;;;13.17;100.00
12358;BME280;6243;51.244;6.774;2023-05-25T03:15:57;150780.91;;;13.16;100.00
12358;BME280;6243;51.244;6.774;2023-05-25T03:18:24;150808.91;;;13.27;100.00
12358;BME280;6243;51.244;6.774;2023-05-25T03:20:50;150798.69;;;13.23;100.00
12358;BME280;6243;51.244;6.774;2023-05-25T03:23:16;150798.69;;;13.23;100.00
12358;BME280;6243;51.244;6.774;2023-05-25T03:25:41;150824.19;;;13.33;100.00
12358;BME280;6243;51.244;6.774;2023-05-25T03:28:07;150848.41;;;13.43;100.00
12358;BME280;6243;51.244;6.774;2023-05-25T03:30:32;150859.84;;;13.47;100.00
12358;BME280;6243;51.244;6.774;2023-05-25T03:32:58;150871.31;;;13.52;100.00
12358;BME280;6243;51.244;6.774;2023-05-25T03:35:23;150844.59;;;13.41;100.00
12358;BME280;6243;51.244;6.774;2023-05-25T03:37:50;150830.56;;;13.36;100.00
12358;BME280;6243;51.244;6.774;2023-05-25T03:40:16;150811.44;;;13.28;100.00
12358;BME280;6243;51.244;6.774;2023-05-25T03:42:41;150757.97;;;13.07;100.00
12358;BME280;6243;51.244;6.774;2023-05-25T03:45:08;150763.06;;;13.09;100.00
12358;BME280;6243;51.244;6.774;2023-05-25T03:47:33;150814.00;;;13.29;100.00
12358;BME280;6243;51.244;6.774;2023-05-25T03:49:59;150798.69;;;13.23;100.00
12358;BME280;6243;51.244;6.774;2023-05-25T03:52:24;150796.16;;;13.22;100.00
12358;BME280;6243;51.244;6.774;2023-05-25T03:54:51;150765.59;;;13.10;100.00
12358;BME280;6243;51.244;6.774;2023-05-25T03:57:17;150761.78;;;13.09;100.00
12358;BME280;6243;51.244;6.774;2023-05-25T03:59:42;150769.44;;;13.12;100.00
12358;BME280;6243;51.244;6.774;2023-05-25T04:02:08;150752.84;;;13.05;100.00
12358;BME280;6243;51.244;6.774;2023-05-25T04:04:33;150727.34;;;12.95;100.00
12358;BME280;6243;51.244;6.774;2023-05-25T04:06:58;150741.31;;;13.01;100.00
12358;BME280;6243;51.244;6.774;2023-05-25T04:09:24;150714.59;;;12.90;100.00
12358;BME280;6243;51.244;6.774;2023-05-25T04:11:51;150722.25;;;12.93;100.00
12358;BME280;6243;51.244;6.774;2023-05-25T04:14:16;150733.72;;;12.98;100.00
12358;BME280;6243;51.244;6.774;2023-05-25T04:16:42;150742.63;;;13.01;100.00
12358;BME280;6243;51.244;6.774;2023-05-25T04:19:07;150743.91;;;13.02;100.00
12358;BME280;6243;51.244;6.774;2023-05-25T04:21:33;150779.63;;;13.16;100.00
12358;BME280;6243;51.244;6.774;2023-05-25T04:23:58;150792.38;;;13.21;100.00
12358;BME280;6243;51.244;6.774;2023-05-25T04:26:24;150764.28;;;13.10;100.00
12358;BME280;6243;51.244;6.774;2023-05-25T04:28:51;150784.72;;;13.18;100.00
12358;BME280;6243;51.244;6.774;2023-05-25T04:31:17;150826.75;;;13.34;100.00
12358;BME280;6243;51.244;6.774;2023-05-25T04:33:42;150793.59;;;13.21;100.00
12358;BME280;6243;51.244;6.774;2023-05-25T04:36:08;150844.59;;;13.41;100.00
12358;BME280;6243;51.244;6.774;2023-05-25T04:38:33;150862.38;;;13.48;100.00
12358;BME280;6243;51.244;6.774;2023-05-25T04:40:59;150890.47;;;13.60;100.00
12358;BME280;6243;51.244;6.774;2023-05-25T04:43:24;150895.53;;;13.62;100.00
12358;BME280;6243;51.244;6.774;2023-05-25T04:45:51;150853.47;;;13.45;100.00
12358;BME280;6243;51.244;6.774;2023-05-25T04:48:17;150839.44;;;13.39;100.00
12358;BME280;6243;51.244;6.774;2023-05-25T04:50:42;150892.97;;;13.61;100.00
12358;BME280;6243;51.244;6.774;2023-05-25T04:53:08;150943.94;;;13.81;100.00
12358;BME280;6243;51.244;6.774;2023-05-25T04:55:34;150971.97;;;13.92;100.00
12358;BME280;6243;51.244;6.774;2023-05-25T04:57:59;151016.59;;;14.09;100.00
12358;BME280;6243;51.244;6.774;2023-05-25T05:00:25;151017.91;;;14.10;100.00
12358;BME280;6243;51.244;6.774;2023-05-25T05:02:52;151025.50;;;14.13;100.00
12358;BME280;6243;51.244;6.774;2023-05-25T05:05:18;151053.53;;;14.24;100.00
12358;BME280;6243;51.244;6.774;2023-05-25T05:07:43;151089.31;;;14.38;100.00
12358;BME280;6243;51.244;6.774;2023-05-25T05:10:09;151109.72;;;14.46;100.00
12358;BME280;6243;51.244;6.774;2023-05-25T05:12:35;151098.25;;;14.42;100.00
12358;BME280;6243;51.244;6.774;2023-05-25T05:15:00;151125.00;;;14.52;100.00
12358;BME280;6243;51.244;6.774;2023-05-25T05:17:26;151141.59;;;14.59;100.00
12358;BME280;6243;51.244;6.774;2023-05-25T05:19:53;151125.00;;;14.52;100.00
12358;BME280;6243;51.244;6.774;2023-05-25T05:22:18;151159.44;;;14.66;100.00
12358;BME280;6243;51.244;6.774;2023-05-25T05:24:44;151192.59;;;14.79;100.00
12358;BME280;6243;51.244;6.774;2023-05-25T05:27:11;151234.69;;;14.96;100.00
12358;BME280;6243;51.244;6.774;2023-05-25T05:29:37;151265.31;;;15.08;100.00
12358;BME280;6243;51.244;6.774;2023-05-25T05:32:03;151308.66;;;15.25;100.00
12358;BME280;6243;51.244;6.774;2023-05-25T05:34:28;151334.22;;;15.35;100.00
12358;BME280;6243;51.244;6.774;2023-05-25T05:36:55;151362.31;;;15.46;100.00
12358;BME280;6243;51.244;6.774;2023-05-25T05:39:21;151332.91;;;15.34;100.00
12358;BME280;6243;51.244;6.774;2023-05-25T05:41:46;151363.59;;;15.46;100.00
12358;BME280;6243;51.244;6.774;2023-05-25T05:44:12;151418.44;;;15.68;100.00
12358;BME280;6243;51.244;6.774;2023-05-25T05:46:37;151438.91;;;15.76;100.00
12358;BME280;6243;51.244;6.774;2023-05-25T05:49:03;151482.28;;;15.93;100.00
12358;BME280;6243;51.244;6.774;2023-05-25T05:51:28;151516.75;;;16.07;100.00
12358;BME280;6243;51.244;6.774;2023-05-25T05:53:55;151561.47;;;16.24;100.00
12358;BME280;6243;51.244;6.774;2023-05-25T05:56:21;151562.69;;;16.25;100.00
12358;BME280;6243;51.244;6.774;2023-05-25T05:58:46;151588.25;;;16.35;100.00
12358;BME280;6243;51.244;6.774;2023-05-25T06:01:12;151616.34;;;16.46;100.00
12358;BME280;6243;51.244;6.774;2023-05-25T06:03:37;151645.78;;;16.58;100.00
12358;BME280;6243;51.244;6.774;2023-05-25T06:06:03;151666.19;;;16.66;100.00
12358;BME280;6243;51.244;6.774;2023-05-25T06:08:29;151691.75;;;16.76;100.00
12358;BME280;6243;51.244;6.774;2023-05-25T06:10:55;151718.56;;;16.86;99.77
12358;BME280;6243;51.244;6.774;2023-05-25T06:13:21;151749.22;;;16.98;99.55
12358;BME280;6243;51.244;6.774;2023-05-25T06:15:46;151758.19;;;17.02;98.46
12358;BME280;6243;51.244;6.774;2023-05-25T06:18:12;151755.63;;;17.01;97.63
12358;BME280;6243;51.244;6.774;2023-05-25T06:20:37;151742.84;;;16.96;98.32
12358;BME280;6243;51.244;6.774;2023-05-25T06:23:03;151777.34;;;17.10;98.78
12358;BME280;6243;51.244;6.774;2023-05-25T06:25:28;151751.81;;;16.99;98.50
12358;BME280;6243;51.244;6.774;2023-05-25T06:27:55;151772.22;;;17.08;97.10
12358;BME280;6243;51.244;6.774;2023-05-25T06:30:21;151751.81;;;16.99;95.81
12358;BME280;6243;51.244;6.774;2023-05-25T06:32:46;151827.19;;;17.29;96.81
12358;BME280;6243;51.244;6.774;2023-05-25T06:35:12;151860.41;;;17.42;94.37
12358;BME280;6243;51.244;6.774;2023-05-25T06:37:37;151878.31;;;17.49;93.15
12358;BME280;6243;51.244;6.774;2023-05-25T06:40:04;151857.81;;;17.41;91.61
12358;BME280;6243;51.244;6.774;2023-05-25T06:42:29;151768.41;;;17.06;90.27
12358;BME280;6243;51.244;6.774;2023-05-25T06:44:56;151791.41;;;17.15;90.89
12358;BME280;6243;51.244;6.774;2023-05-25T06:47:22;151850.19;;;17.38;91.70
12358;BME280;6243;51.244;6.774;2023-05-25T06:49:48;151893.66;;;17.55;90.62
12358;BME280;6243;51.244;6.774;2023-05-25T06:52:13;151937.16;;;17.73;87.94
12358;BME280;6243;51.244;6.774;2023-05-25T06:54:39;151992.09;;;17.94;90.16
12358;BME280;6243;51.244;6.774;2023-05-25T06:57:04;152076.53;;;18.27;87.26
12358;BME280;6243;51.244;6.774;2023-05-25T06:59:30;152093.13;;;18.34;80.70
12358;BME280;6243;51.244;6.774;2023-05-25T07:01:56;152141.75;;;18.53;78.61
12358;BME280;6243;51.244;6.774;2023-05-25T07:04:22;152169.91;;;18.64;77.77
12358;BME280;6243;51.244;6.774;2023-05-25T07:06:47;152145.63;;;18.55;76.67
12358;BME280;6243;51.244;6.774;2023-05-25T07:09:13;152141.75;;;18.53;75.85
12358;BME280;6243;51.244;6.774;2023-05-25T07:11:39;152178.88;;;18.68;77.09
12358;BME280;6243;51.244;6.774;2023-05-25T07:14:04;152231.31;;;18.88;77.04
12358;BME280;6243;51.244;6.774;2023-05-25T07:16:30;152244.13;;;18.93;75.41
12358;BME280;6243;51.244;6.774;2023-05-25T07:18:56;152301.72;;;19.16;73.70
12358;BME280;6243;51.244;6.774;2023-05-25T07:21:22;152356.75;;;19.38;74.84
12358;BME280;6243;51.244;6.774;2023-05-25T07:23:47;152390.03;;;19.51;71.97
12358;BME280;6243;51.244;6.774;2023-05-25T07:26:13;152372.16;;;19.44;72.42
12358;BME280;6243;51.244;6.774;2023-05-25T07:28:38;152228.75;;;18.87;74.99
12358;BME280;6243;51.244;6.774;2023-05-25T07:31:04;152345.19;;;19.33;74.07
12358;BME280;6243;51.244;6.774;2023-05-25T07:33:29;152419.47;;;19.62;72.66
12358;BME280;6243;51.244;6.774;2023-05-25T07:35:56;152431.00;;;19.67;71.80
12358;BME280;6243;51.244;6.774;2023-05-25T07:38:22;152405.44;;;19.57;68.37
12358;BME280;6243;51.244;6.774;2023-05-25T07:40:47;152393.91;;;19.52;68.80
12358;BME280;6243;51.244;6.774;2023-05-25T07:43:13;152493.78;;;19.92;69.52
12358;BME280;6243;51.244;6.774;2023-05-25T07:45:39;152542.41;;;20.11;67.64
12358;BME280;6243;51.244;6.774;2023-05-25T07:48:04;152619.31;;;20.41;68.59
12358;BME280;6243;51.244;6.774;2023-05-25T07:50:30;152506.53;;;19.97;65.14
12358;BME280;6243;51.244;6.774;2023-05-25T07:52:57;152533.47;;;20.07;65.50
12358;BME280;6243;51.244;6.774;2023-05-25T07:55:22;152633.41;;;20.46;66.60
12358;BME280;6243;51.244;6.774;2023-05-25T07:57:48;152512.94;;;19.99;63.68
12358;BME280;6243;51.244;6.774;2023-05-25T08:00:14;152520.63;;;20.02;63.98
12358;BME280;6243;51.244;6.774;2023-05-25T08:02:39;152498.88;;;19.94;65.36
12358;BME280;6243;51.244;6.774;2023-05-25T08:05:05;152592.44;;;20.30;66.59
12358;BME280;6243;51.244;6.774;2023-05-25T08:07:31;152589.84;;;20.29;65.48
12358;BME280;6243;51.244;6.774;2023-05-25T08:09:58;152627.00;;;20.44;65.58
12358;BME280;6243;51.244;6.774;2023-05-25T08:12:24;152548.81;;;20.13;64.78
12358;BME280;6243;51.244;6.774;2023-05-25T08:14:49;152597.53;;;20.32;65.65
12358;BME280;6243;51.244;6.774;2023-05-25T08:17:15;152668.00;;;20.60;66.49
12358;BME280;6243;51.244;6.774;2023-05-25T08:19:40;152703.84;;;20.74;65.33
12358;BME280;6243;51.244;6.774;2023-05-25T08:22:06;152641.06;;;20.49;62.93
12358;BME280;6243;51.244;6.774;2023-05-25T08:24:31;152541.09;;;20.10;64.09
12358;BME280;6243;51.244;6.774;2023-05-25T08:26:59;152475.84;;;19.85;63.92
12358;BME280;6243;51.244;6.774;2023-05-25T08:29:24;152566.75;;;20.20;64.18
12358;BME280;6243;51.244;6.774;2023-05-25T08:31:50;152597.53;;;20.32;63.69
12358;BME280;6243;51.244;6.774;2023-05-25T08:34:15;152473.25;;;19.83;62.62
12358;BME280;6243;51.244;6.774;2023-05-25T08:36:41;152571.91;;;20.22;63.87
12358;BME280;6243;51.244;6.774;2023-05-25T08:39:07;152623.13;;;20.42;63.67
12358;BME280;6243;51.244;6.774;2023-05-25T08:41:33;152623.13;;;20.42;63.96
12358;BME280;6243;51.244;6.774;2023-05-25T08:44:03;152639.78;;;20.49;62.78
12358;BME280;6243;51.244;6.774;2023-05-25T08:46:29;152717.94;;;20.80;63.80
12358;BME280;6243;51.244;6.774;2023-05-25T08:48:58;152830.78;;;21.24;62.83
12358;BME280;6243;51.244;6.774;2023-05-25T08:51:24;152930.72;;;21.63;62.60
12358;BME280;6243;51.244;6.774;2023-05-25T08:53:50;152939.72;;;21.67;60.84
12358;BME280;6243;51.244;6.774;2023-05-25T08:56:19;152985.94;;;21.85;60.93
12358;BME280;6243;51.244;6.774;2023-05-25T08:58:48;153039.81;;;22.06;59.64
12358;BME280;6243;51.244;6.774;2023-05-25T09:01:17;152998.78;;;21.90;58.03
12358;BME280;6243;51.244;6.774;2023-05-25T09:03:44;152869.22;;;21.39;58.39
12358;BME280;6243;51.244;6.774;2023-05-25T09:06:11;152825.63;;;21.22;58.20
12358;BME280;6243;51.244;6.774;2023-05-25T09:08:37;152685.94;;;20.67;59.52
12358;BME280;6243;51.244;6.774;2023-05-25T09:11:03;152783.34;;;21.05;60.60
12358;BME280;6243;51.244;6.774;2023-05-25T09:13:30;152851.25;;;21.32;59.92
12358;BME280;6243;51.244;6.774;2023-05-25T09:15:56;152965.34;;;21.77;60.83
12358;BME280;6243;51.244;6.774;2023-05-25T09:18:23;153124.44;;;22.39;59.55
12358;BME280;6243;51.244;6.774;2023-05-25T09:20:49;153228.38;;;22.80;58.03
12358;BME280;6243;51.244;6.774;2023-05-25T09:23:15;153129.56;;;22.41;56.36
12358;BME280;6243;51.244;6.774;2023-05-25T09:25:41;153238.66;;;22.84;57.03
12358;BME280;6243;51.244;6.774;2023-05-25T09:28:08;153333.63;;;23.21;56.76
12358;BME280;6243;51.244;6.774;2023-05-25T09:30:34;153450.50;;;23.67;56.11
12358;BME280;6243;51.244;6.774;2023-05-25T09:33:10;153498.00;;;23.86;53.13
12358;BME280;6243;51.244;6.774;2023-05-25T09:35:39;153499.31;;;23.86;52.12
12358;BME280;6243;51.244;6.774;2023-05-25T09:38:05;153554.56;;;24.08;52.78
12358;BME280;6243;51.244;6.774;2023-05-25T09:40:32;153549.41;;;24.06;51.39
12358;BME280;6243;51.244;6.774;2023-05-25T09:42:58;153471.03;;;23.75;52.49
12358;BME280;6243;51.244;6.774;2023-05-25T09:45:25;153358.03;;;23.31;51.75
12358;BME280;6243;51.244;6.774;2023-05-25T09:47:53;153390.16;;;23.44;54.30
12358;BME280;6243;51.244;6.774;2023-05-25T09:50:19;153445.38;;;23.65;53.62
12358;BME280;6243;51.244;6.774;2023-05-25T09:52:46;153412.00;;;23.52;53.56
12358;BME280;6243;51.244;6.774;2023-05-25T09:55:12;153485.16;;;23.81;54.02
12358;BME280;6243;51.244;6.774;2023-05-25T09:57:39;153524.97;;;23.96;52.18
12358;BME280;6243;51.244;6.774;2023-05-25T10:00:06;153517.25;;;23.93;53.12
12358;BME280;6243;51.244;6.774;2023-05-25T10:02:31;153438.94;;;23.63;51.93
12358;BME280;6243;51.244;6.774;2023-05-25T10:04:57;153415.84;;;23.54;50.75
12358;BME280;6243;51.244;6.774;2023-05-25T10:07:23;153423.56;;;23.57;51.53
12358;BME280;6243;51.244;6.774;2023-05-25T10:09:53;153403.00;;;23.49;51.87
12358;BME280;6243;51.244;6.774;2023-05-25T10:12:21;153365.78;;;23.34;52.40
12358;BME280;6243;51.244;6.774;2023-05-25T10:14:49;153427.38;;;23.58;53.52
12358;BME280;6243;51.244;6.774;2023-05-25T10:17:22;153218.13;;;22.76;52.52
12358;BME280;6243;51.244;6.774;2023-05-25T10:19:54;153138.56;;;22.45;52.95
12358;BME280;6243;51.244;6.774;2023-05-25T10:22:22;153153.94;;;22.51;53.07
12358;BME280;6243;51.244;6.774;2023-05-25T10:24:53;152902.53;;;21.52;55.25
12358;BME280;6243;51.244;6.774;2023-05-25T10:27:22;153089.81;;;22.26;56.39
12358;BME280;6243;51.244;6.774;2023-05-25T10:29:49;153083.38;;;22.23;54.41
12358;BME280;6243;51.244;6.774;2023-05-25T10:32:16;153005.19;;;21.93;54.25
12358;BME280;6243;51.244;6.774;2023-05-25T10:34:42;152974.34;;;21.80;55.34
12358;BME280;6243;51.244;6.774;2023-05-25T10:37:08;152969.22;;;21.78;57.38
12358;BME280;6243;51.244;6.774;2023-05-25T10:39:34;153074.44;;;22.20;58.24
12358;BME280;6243;51.244;6.774;2023-05-25T10:42:02;152943.56;;;21.68;55.87
12358;BME280;6243;51.244;6.774;2023-05-25T10:44:28;152897.41;;;21.50;55.96
12358;BME280;6243;51.244;6.774;2023-05-25T10:46:53;152883.34;;;21.45;56.26
12358;BME280;6243;51.244;6.774;2023-05-25T10:49:26;152837.16;;;21.27;56.21
12358;BME280;6243;51.244;6.774;2023-05-25T10:51:58;152807.72;;;21.15;56.00
12358;BME280;6243;51.244;6.774;2023-05-25T10:54:27;152834.59;;;21.26;56.47
12358;BME280;6243;51.244;6.774;2023-05-25T10:57:11;152808.97;;;21.15;55.80
12358;BME280;6243;51.244;6.774;2023-05-25T10:59:40;152833.31;;;21.25;57.71
12358;BME280;6243;51.244;6.774;2023-05-25T11:02:06;152825.63;;;21.22;56.80
12358;BME280;6243;51.244;6.774;2023-05-25T11:04:31;152800.00;;;21.12;57.74
12358;BME280;6243;51.244;6.774;2023-05-25T11:07:04;152823.06;;;21.21;56.73
12358;BME280;6243;51.244;6.774;2023-05-25T11:09:31;152826.91;;;21.23;56.84
12358;BME280;6243;51.244;6.774;2023-05-25T11:12:00;152726.88;;;20.83;56.24
12358;BME280;6243;51.244;6.774;2023-05-25T11:14:29;152707.72;;;20.76;58.51
12358;BME280;6243;51.244;6.774;2023-05-25T11:17:03;152705.13;;;20.75;58.98
12358;BME280;6243;51.244;6.774;2023-05-25T11:19:38;152425.88;;;19.65;59.82
12358;BME280;6243;51.244;6.774;2023-05-25T11:22:12;152469.44;;;19.82;60.56
12358;BME280;6243;51.244;6.774;2023-05-25T11:24:38;152347.78;;;19.34;60.49
12358;BME280;6243;51.244;6.774;2023-05-25T11:27:04;152361.88;;;19.40;61.14
12358;BME280;6243;51.244;6.774;2023-05-25T11:29:31;152433.56;;;19.68;61.29
12358;BME280;6243;51.244;6.774;2023-05-25T11:31:57;152407.97;;;19.58;61.81
12358;BME280;6243;51.244;6.774;2023-05-25T11:34:23;152440.00;;;19.70;61.35
12358;BME280;6243;51.244;6.774;2023-05-25T11:36:52;152664.13;;;20.59;60.30
12358;BME280;6243;51.244;6.774;2023-05-25T11:39:19;152550.09;;;20.14;60.36
12358;BME280;6243;51.244;6.774;2023-05-25T11:41:47;152607.78;;;20.36;59.41
12358;BME280;6243;51.244;6.774;2023-05-25T11:44:13;152650.06;;;20.53;59.92
12358;BME280;6243;51.244;6.774;2023-05-25T11:46:41;152536.00;;;20.08;59.77
12358;BME280;6243;51.244;6.774;2023-05-25T11:49:07;152564.16;;;20.19;60.68
12358;BME280;6243;51.244;6.774;2023-05-25T11:51:32;152456.63;;;19.77;60.15
12358;BME280;6243;51.244;6.774;2023-05-25T11:53:58;152641.06;;;20.49;60.10
12358;BME280;6243;51.244;6.774;2023-05-25T11:56:23;152665.41;;;20.59;60.05
12358;BME280;6243;51.244;6.774;2023-05-25T11:58:49;152542.41;;;20.11;59.13
12358;BME280;6243;51.244;6.774;2023-05-25T12:01:16;152600.06;;;20.33;59.66
12358;BME280;6243;51.244;6.774;2023-05-25T12:03:44;152643.66;;;20.50;59.83
12358;BME280;6243;51.244;6.774;2023-05-25T12:06:22;152805.13;;;21.14;58.82
12358;BME280;6243;51.244;6.774;2023-05-25T12:08:48;152749.94;;;20.92;58.00
12358;BME280;6243;51.244;6.774;2023-05-25T12:11:14;152739.72;;;20.88;57.71
12358;BME280;6243;51.244;6.774;2023-05-25T12:13:40;152757.66;;;20.95;59.00
12358;BME280;6243;51.244;6.774;2023-05-25T12:16:06;152656.47;;;20.56;59.12
12358;BME280;6243;51.244;6.774;2023-05-25T12:18:31;152738.44;;;20.88;59.61
12358;BME280;6243;51.244;6.774;2023-05-25T12:20:58;152583.44;;;20.27;59.93
12358;BME280;6243;51.244;6.774;2023-05-25T12:23:24;152682.06;;;20.66;60.69
12358;BME280;6243;51.244;6.774;2023-05-25T12:26:05;152867.94;;;21.39;58.73
12358;BME280;6243;51.244;6.774;2023-05-25T12:28:30;152864.09;;;21.37;56.64
12358;BME280;6243;51.244;6.774;2023-05-25T12:30:56;152674.41;;;20.63;58.90
12358;BME280;6243;51.244;6.774;2023-05-25T12:33:22;152776.91;;;21.03;58.12
12358;BME280;6243;51.244;6.774;2023-05-25T12:35:49;152821.78;;;21.20;58.21
12358;BME280;6243;51.244;6.774;2023-05-25T12:38:17;152723.06;;;20.82;57.90
12358;BME280;6243;51.244;6.774;2023-05-25T12:40:43;152779.47;;;21.04;57.68
12358;BME280;6243;51.244;6.774;2023-05-25T12:43:09;152887.16;;;21.46;57.44
12358;BME280;6243;51.244;6.774;2023-05-25T12:45:38;152873.03;;;21.41;57.41
12358;BME280;6243;51.244;6.774;2023-05-25T12:48:04;152887.16;;;21.46;57.59
12358;BME280;6243;51.244;6.774;2023-05-25T12:50:29;152956.38;;;21.73;57.08